Time;durP1;ratioP1;P1;durP2;ratioP2;P2;SDS_P1;SDS_P2;PMS_P1;PMS_P2;Temp;Humidity;BMP_temperature;BMP_pressure;BME280_temperature;BME280_humidity;BME280_pressure;Samples;Min_cycle;Max_cycle;Signal;HPM_P1;HPM_P2
2021/03/18 00:01:42;;;;;;;14.27;7.90;;;;;;;20.53;38.23;103575.84;5053587;28;20059;-79
2021/03/18 00:04:10;;;;;;;14.85;7.32;;;;;;;20.83;37.75;103588.19;5056609;28;20029;-79
2021/03/18 00:06:36;;;;;;;12.05;6.82;;;;;;;20.55;38.51;103581.91;5055344;28;20518;-82
2021/03/18 00:09:05;;;;;;;12.45;7.68;;;;;;;20.83;37.89;103574.31;5056597;28;20029;-84
2021/03/18 00:11:31;;;;;;;11.80;6.88;;;;;;;20.72;38.10;103588.44;5056613;28;20036;-83
2021/03/18 00:13:56;;;;;;;11.48;7.38;;;;;;;20.87;37.65;103583.66;5056017;28;20028;-82
2021/03/18 00:16:22;;;;;;;11.13;7.57;;;;;;;21.00;37.40;103575.25;5056514;28;20056;-84
2021/03/18 00:18:53;;;;;;;18.50;7.75;;;;;;;21.04;37.50;103575.47;5056390;28;20050;-76
2021/03/18 00:21:20;;;;;;;11.50;6.70;;;;;;;21.04;37.49;103581.84;5056258;28;20041;-76
2021/03/18 00:23:47;;;;;;;13.25;7.07;;;;;;;21.04;37.56;103570.72;5056122;28;20028;-77
2021/03/18 00:26:13;;;;;;;12.48;6.78;;;;;;;21.15;37.34;103573.22;5056318;28;20029;-84
2021/03/18 00:28:38;;;;;;;13.18;7.75;;;;;;;21.18;37.30;103567.06;5056312;28;20482;-84
2021/03/18 00:31:05;;;;;;;10.10;7.07;;;;;;;21.04;37.40;103553.22;5056120;28;20029;-77
2021/03/18 00:33:32;;;;;;;11.63;6.97;;;;;;;21.24;37.27;103554.66;5056122;28;20029;-85
2021/03/18 00:35:57;;;;;;;16.45;8.13;;;;;;;21.19;37.48;103557.56;5055804;28;20021;-77
2021/03/18 00:38:25;;;;;;;10.40;7.38;;;;;;;21.23;37.41;103561.34;5054636;28;20028;-83
2021/03/18 00:41:04;;;;;;;12.05;6.40;;;;;;;21.27;37.52;103566.00;5055974;28;20060;-80
2021/03/18 00:43:29;;;;;;;9.57;7.05;;;;;;;21.34;37.13;103559.97;5055821;28;20075;-75
2021/03/18 00:45:55;;;;;;;12.57;7.28;;;;;;;21.41;37.06;103556.75;5054479;28;20472;-83
2021/03/18 00:48:22;;;;;;;13.50;7.20;;;;;;;21.41;37.13;103553.97;5055737;28;20099;-75
2021/03/18 00:50:57;;;;;;;8.95;6.30;;;;;;;21.41;37.10;103548.41;5055616;28;20100;-80
2021/03/18 00:53:26;;;;;;;8.15;5.60;;;;;;;21.37;37.36;103537.06;5055637;28;20028;-83
2021/03/18 00:55:52;;;;;;;10.60;6.57;;;;;;;21.41;37.38;103542.84;5055770;28;20438;-82
2021/03/18 00:58:19;;;;;;;9.60;6.28;;;;;;;21.51;37.03;103535.03;5055534;28;20028;-82
2021/03/18 01:00:47;;;;;;;9.88;6.07;;;;;;;21.53;36.97;103541.06;5055510;28;20029;-84
2021/03/18 01:03:14;;;;;;;9.32;6.70;;;;;;;21.53;37.23;103543.03;5037915;28;20513;-83
2021/03/18 01:05:54;;;;;;;12.57;7.60;;;;;;;21.55;37.27;103544.38;5055549;28;20369;-81
2021/03/18 01:08:24;;;;;;;8.23;6.25;;;;;;;21.56;37.27;103536.84;5054448;28;20442;-76
2021/03/18 01:10:54;;;;;;;15.13;7.22;;;;;;;21.41;37.74;103538.09;5055044;28;20025;-83
2021/03/18 01:13:21;;;;;;;7.60;6.22;;;;;;;21.53;37.32;103526.34;5055217;28;20431;-83
2021/03/18 01:15:49;;;;;;;7.60;5.88;;;;;;;21.64;37.17;103535.25;5055523;28;20501;-84
2021/03/18 01:18:16;;;;;;;9.07;5.60;;;;;;;21.61;37.39;103533.91;5055241;28;20036;-76
2021/03/18 01:20:43;;;;;;;8.65;6.65;;;;;;;21.66;37.28;103524.63;5053860;28;20141;-77
2021/03/18 01:23:09;;;;;;;9.68;7.22;;;;;;;21.70;37.21;103520.06;5054625;28;20037;-82
2021/03/18 01:25:34;;;;;;;8.48;7.57;;;;;;;21.71;37.08;103521.69;5054974;28;20036;-75
2021/03/18 01:28:00;;;;;;;11.10;10.00;;;;;;;21.77;37.12;103520.41;5055050;28;20476;-75
2021/03/18 01:30:26;;;;;;;13.77;11.52;;;;;;;21.71;37.34;103516.94;5054785;28;20033;-79
2021/03/18 01:32:52;;;;;;;17.00;14.15;;;;;;;21.75;37.30;103517.94;5054916;28;20104;-84
2021/03/18 01:35:21;;;;;;;19.75;16.33;;;;;;;21.74;37.34;103518.25;5054834;28;20566;-77
2021/03/18 01:37:48;;;;;;;23.67;19.02;;;;;;;21.73;37.43;103514.66;5053565;28;20044;-80
2021/03/18 01:40:27;;;;;;;23.10;19.20;;;;;;;21.67;37.72;103506.78;5054764;28;20029;-77
2021/03/18 01:42:54;;;;;;;17.20;14.85;;;;;;;21.49;38.12;103501.16;5054719;28;20036;-84
2021/03/18 01:45:20;;;;;;;20.77;16.98;;;;;;;21.36;38.45;103496.50;5054518;28;20112;-80
2021/03/18 01:47:48;;;;;;;15.05;13.10;;;;;;;21.01;39.63;103493.53;5054493;28;20096;-75
2021/03/18 01:50:15;;;;;;;15.20;13.02;;;;;;;21.17;39.01;103493.13;5053289;28;20028;-75
2021/03/18 01:52:42;;;;;;;15.93;12.65;;;;;;;21.30;38.69;103495.81;5054499;28;20477;-83
2021/03/18 01:55:12;;;;;;;13.82;11.70;;;;;;;21.40;38.40;103503.09;5054514;28;20021;-76
2021/03/18 01:57:38;;;;;;;18.40;12.45;;;;;;;21.20;38.93;103495.25;5054591;28;20062;-80
2021/03/18 02:00:07;;;;;;;13.20;11.80;;;;;;;21.17;39.09;103499.50;5053543;28;20112;-85
2021/03/18 02:02:33;;;;;;;11.63;9.50;;;;;;;21.17;39.41;103504.25;5053108;28;20029;-82
2021/03/18 02:04:59;;;;;;;10.75;8.82;;;;;;;20.98;39.63;103502.50;5054541;28;20029;-78
2021/03/18 02:07:25;;;;;;;12.32;11.02;;;;;;;21.23;39.20;103497.38;5054586;28;20471;-83
2021/03/18 02:09:50;;;;;;;12.82;9.82;;;;;;;21.07;39.52;103494.19;5053828;28;20060;-77
2021/03/18 02:12:16;;;;;;;10.95;9.73;;;;;;;21.16;39.39;103492.31;5054159;28;20033;-76
2021/03/18 02:14:41;;;;;;;13.15;11.70;;;;;;;21.32;38.96;103492.75;5054380;28;20078;-83
2021/03/18 02:17:10;;;;;;;13.02;10.57;;;;;;;21.21;39.20;103488.56;5054146;28;20429;-80
2021/03/18 02:20:13;;;;;;;17.17;13.93;;;;;;;21.30;38.99;103495.81;5052751;28;20502;-83
2021/03/18 02:23:06;;;;;;;22.27;18.38;;;;;;;21.42;38.83;103495.22;5054238;28;20037;-83
2021/03/18 02:25:39;;;;;;;29.02;22.48;;;;;;;21.43;38.75;103498.81;5053626;28;20029;-84
2021/03/18 02:28:42;;;;;;;32.00;24.88;;;;;;;21.40;39.00;103486.41;5052845;28;20183;-81
2021/03/18 02:31:11;;;;;;;32.85;25.00;;;;;;;21.49;38.60;103480.84;5053845;28;20043;-76
2021/03/18 02:34:12;;;;;;;19.60;16.90;;;;;;;21.16;39.52;103477.56;5053814;28;20557;-79
2021/03/18 02:36:53;;;;;;;16.73;13.18;;;;;;;21.39;38.89;103479.19;5054022;28;20415;-82
2021/03/18 02:39:31;;;;;;;15.38;13.15;;;;;;;21.39;38.83;103479.19;5053838;28;20029;-85
2021/03/18 02:42:02;;;;;;;16.90;14.63;;;;;;;21.25;39.19;103489.56;5053625;28;20029;-81
2021/03/18 02:44:29;;;;;;;20.13;16.02;;;;;;;21.37;38.95;103487.00;5053863;28;20108;-79
2021/03/18 02:47:08;;;;;;;25.95;21.15;;;;;;;21.15;39.52;103489.81;5053697;28;20111;-82
2021/03/18 02:49:37;;;;;;;24.40;19.92;;;;;;;21.32;39.04;103498.31;5052548;28;20407;-81
2021/03/18 02:52:04;;;;;;;23.48;20.38;;;;;;;21.48;38.58;103496.72;5053828;28;20116;-84
2021/03/18 02:54:31;;;;;;;25.20;21.75;;;;;;;21.48;38.74;103495.91;5053506;28;20025;-83
2021/03/18 02:57:02;;;;;;;28.48;25.48;;;;;;;21.42;38.91;103488.84;5053349;28;20037;-77
2021/03/18 02:59:33;;;;;;;23.88;20.27;;;;;;;21.42;38.65;103489.66;5053626;28;20510;-76
2021/03/18 03:02:01;;;;;;;26.52;21.20;;;;;;;21.36;38.85;103485.38;5053446;28;20025;-76
2021/03/18 03:04:28;;;;;;;25.05;20.52;;;;;;;21.45;38.77;103477.88;5053701;28;20458;-82
2021/03/18 03:06:54;;;;;;;25.52;21.45;;;;;;;21.37;38.93;103486.19;5053457;28;20498;-79
2021/03/18 03:09:21;;;;;;;30.77;26.13;;;;;;;21.32;39.02;103484.41;5053337;28;20033;-83
2021/03/18 03:11:48;;;;;;;36.92;32.03;;;;;;;21.36;38.88;103488.16;5052188;28;20427;-84
2021/03/18 03:14:14;;;;;;;35.53;28.35;;;;;;;21.06;39.90;103478.66;5053453;28;20021;-79
2021/03/18 03:16:40;;;;;;;32.10;27.63;;;;;;;21.31;38.87;103479.94;5053286;28;20025;-78
2021/03/18 03:19:07;;;;;;;31.15;25.23;;;;;;;21.13;39.27;103481.00;5052917;28;20028;-84
2021/03/18 03:21:34;;;;;;;22.83;18.30;;;;;;;21.35;39.19;103475.41;5052951;28;20041;-84
2021/03/18 03:24:01;;;;;;;20.52;15.38;;;;;;;21.37;38.85;103475.06;5052758;28;20079;-78
2021/03/18 03:26:27;;;;;;;18.45;14.80;;;;;;;21.42;38.84;103472.16;5052770;28;20071;-84
2021/03/18 03:28:55;;;;;;;13.73;10.93;;;;;;;21.34;38.86;103473.75;5052384;28;20495;-83
2021/03/18 03:31:20;;;;;;;8.90;7.20;;;;;;;21.37;38.64;103481.47;5052874;28;20082;-85
2021/03/18 03:33:46;;;;;;;7.45;6.40;;;;;;;21.38;38.88;103471.97;5052973;28;20104;-76
2021/03/18 03:36:13;;;;;;;8.15;7.28;;;;;;;21.34;38.91;103468.19;5052061;28;20430;-82
2021/03/18 03:38:39;;;;;;;8.02;6.05;;;;;;;21.22;39.07;103476.28;5052769;28;20495;-82
2021/03/18 03:41:06;;;;;;;11.85;8.32;;;;;;;21.23;39.03;103475.13;5052715;28;20029;-78
2021/03/18 03:43:33;;;;;;;13.57;11.20;;;;;;;21.27;38.96;103477.00;5052395;28;20029;-85
2021/03/18 03:45:59;;;;;;;16.55;14.75;;;;;;;21.30;38.83;103464.41;5052667;28;20471;-76
2021/03/18 03:48:29;;;;;;;18.50;16.50;;;;;;;21.32;38.50;103467.72;5052660;28;20537;-76
2021/03/18 03:50:56;;;;;;;15.68;12.30;;;;;;;21.27;38.82;103465.03;5052112;28;20108;-84
2021/03/18 03:53:36;;;;;;;12.10;8.88;;;;;;;21.28;38.65;103466.69;5045547;28;20068;-82
2021/03/18 03:56:09;;;;;;;4.55;3.42;;;;;;;20.99;39.03;103467.16;5051467;28;20558;-84
2021/03/18 03:58:41;;;;;;;3.67;2.60;;;;;;;21.18;38.73;103466.97;5052344;28;20364;-84
2021/03/18 04:01:35;;;;;;;3.92;2.40;;;;;;;21.24;38.44;103463.72;5052206;28;20035;-82
2021/03/18 04:04:09;;;;;;;3.30;2.25;;;;;;;21.05;38.72;103465.91;5051889;28;20060;-83
2021/03/18 04:06:36;;;;;;;4.07;2.63;;;;;;;21.05;38.78;103469.50;5052109;28;20035;-78
2021/03/18 04:09:06;;;;;;;3.38;2.50;;;;;;;21.12;38.78;103462.66;5052520;28;20024;-84
2021/03/18 04:11:37;;;;;;;3.67;2.42;;;;;;;21.17;38.58;103470.88;5052462;28;20066;-83
2021/03/18 04:14:07;;;;;;;2.97;1.95;;;;;;;21.24;38.45;103460.13;5052484;28;20123;-84
2021/03/18 04:16:36;;;;;;;3.25;1.80;;;;;;;20.81;39.21;103462.66;5050967;28;20021;-84
2021/03/18 04:19:03;;;;;;;2.72;1.75;;;;;;;21.06;38.49;103460.00;5052266;28;20104;-82
2021/03/18 04:21:36;;;;;;;2.97;1.60;;;;;;;20.39;39.94;103465.59;5052116;28;20041;-82
2021/03/18 04:24:04;;;;;;;3.83;1.35;;;;;;;20.63;39.22;103459.78;5052120;28;20047;-78
2021/03/18 04:26:32;;;;;;;3.83;1.83;;;;;;;20.61;39.15;103464.81;5050909;28;20060;-83
2021/03/18 04:29:01;;;;;;;2.63;1.83;;;;;;;20.40;39.64;103461.69;5051805;28;20036;-75
2021/03/18 04:31:27;;;;;;;2.80;1.98;;;;;;;20.45;39.23;103458.81;5051945;28;20025;-76
2021/03/18 04:33:53;;;;;;;4.10;1.58;;;;;;;20.70;38.97;103453.75;5052062;28;20025;-75
2021/03/18 04:36:19;;;;;;;3.65;2.08;;;;;;;20.66;39.01;103461.09;5051965;28;20479;-78
2021/03/18 04:38:45;;;;;;;3.10;1.73;;;;;;;20.39;39.74;103459.22;5052025;28;20067;-83
2021/03/18 04:41:11;;;;;;;2.45;1.50;;;;;;;20.42;39.53;103455.81;5051876;28;20021;-75
2021/03/18 04:43:38;;;;;;;2.90;2.03;;;;;;;20.29;39.65;103451.94;5051936;28;20032;-82
2021/03/18 04:46:06;;;;;;;2.55;1.80;;;;;;;20.64;38.99;103455.03;5052017;28;20036;-79
2021/03/18 04:48:33;;;;;;;4.30;2.97;;;;;;;20.41;39.65;103449.44;5054114;28;20108;-84
2021/03/18 04:50:59;;;;;;;3.80;2.30;;;;;;;20.74;39.01;103452.00;5055735;28;20454;-75
2021/03/18 04:53:24;;;;;;;3.85;2.75;;;;;;;20.65;39.25;103456.69;5054176;28;20053;-76
2021/03/18 04:55:50;;;;;;;5.55;3.55;;;;;;;20.79;38.94;103454.66;5054413;28;20025;-82
2021/03/18 04:58:20;;;;;;;9.63;6.40;;;;;;;20.85;38.82;103464.47;5055607;28;20377;-77
2021/03/18 05:00:46;;;;;;;;;;;;;;;20.88;38.96;103451.91;5056265;28;20471;-83
2021/03/18 05:03:12;;;;;;;14.23;11.80;;;;;;;20.95;38.71;103463.41;5055354;28;19913;-78
2021/03/18 05:05:38;;;;;;;7.70;6.57;;;;;;;20.18;40.09;103454.16;5054337;28;20025;-76
2021/03/18 05:08:05;;;;;;;7.32;6.05;;;;;;;20.64;39.35;103455.03;5055660;28;20051;-83
2021/03/18 05:10:34;;;;;;;8.75;7.05;;;;;;;20.68;39.26;103470.75;5055538;28;20021;-81
2021/03/18 05:13:04;;;;;;;4.93;3.63;;;;;;;20.51;39.44;103465.06;5055424;28;20064;-78
2021/03/18 05:15:30;;;;;;;5.30;4.55;;;;;;;20.85;38.78;103472.81;5055124;28;20262;-83
2021/03/18 05:17:56;;;;;;;5.95;4.90;;;;;;;20.92;38.72;103466.81;5055344;28;20479;-78
2021/03/18 05:20:24;;;;;;;10.77;8.40;;;;;;;20.84;38.95;103476.72;5055032;28;20166;-84
2021/03/18 05:22:50;;;;;;;7.05;5.70;;;;;;;20.99;38.53;103481.06;5055116;28;20025;-84
2021/03/18 05:25:20;;;;;;;8.15;5.13;;;;;;;20.63;39.33;103470.88;5055323;28;20029;-78
2021/03/18 05:27:46;;;;;;;;;;;;;;;20.42;39.79;103470.53;5056060;28;20021;-77
2021/03/18 05:30:12;;;;;;;9.48;7.97;;;;;;;20.64;39.14;103472.53;5055144;28;20371;-77
2021/03/18 05:32:38;;;;;;;7.47;5.88;;;;;;;20.80;38.79;103472.13;5055182;28;20028;-84
2021/03/18 05:35:06;;;;;;;6.50;4.53;;;;;;;20.83;38.72;103468.72;5055147;28;20024;-84
2021/03/18 05:37:32;;;;;;;5.40;4.63;;;;;;;20.67;39.13;103471.88;5054856;28;20071;-79
2021/03/18 05:39:57;;;;;;;4.80;3.85;;;;;;;20.85;38.62;103469.22;5055053;28;20064;-76
2021/03/18 05:42:23;;;;;;;4.95;3.78;;;;;;;20.44;39.25;103468.28;5054791;28;20029;-84
2021/03/18 05:44:49;;;;;;;6.95;4.93;;;;;;;20.71;38.53;103470.13;5054863;28;20092;-75
2021/03/18 05:47:15;;;;;;;9.48;6.72;;;;;;;20.78;38.50;103473.28;5054739;28;20108;-75
2021/03/18 05:49:44;;;;;;;8.55;5.30;;;;;;;20.87;38.36;103466.94;5054631;28;20025;-77
2021/03/18 05:52:12;;;;;;;8.43;6.78;;;;;;;20.53;39.09;103461.97;5053490;28;20544;-75
2021/03/18 05:54:46;;;;;;;5.47;4.25;;;;;;;20.58;38.77;103464.63;5054536;28;20033;-76
2021/03/18 05:57:15;;;;;;;6.93;5.28;;;;;;;20.69;38.58;103468.78;5054584;28;20029;-78
2021/03/18 05:59:43;;;;;;;11.50;5.68;;;;;;;20.77;38.48;103473.56;5053506;28;20025;-75
2021/03/18 06:02:09;;;;;;;6.45;4.93;;;;;;;20.80;38.53;103472.97;5054185;28;20021;-80
2021/03/18 06:04:35;;;;;;;4.70;2.85;;;;;;;20.78;38.35;103466.88;5054292;28;20380;-83
2021/03/18 06:07:01;;;;;;;6.90;3.60;;;;;;;20.73;38.61;103458.69;5054335;28;20036;-84
2021/03/18 06:09:27;;;;;;;5.38;3.03;;;;;;;20.70;38.66;103467.63;5053000;28;20021;-82
2021/03/18 06:11:53;;;;;;;5.70;4.03;;;;;;;20.76;38.51;103461.63;5054099;28;20359;-76
2021/03/18 06:14:19;;;;;;;3.60;2.58;;;;;;;20.74;38.57;103457.56;5054218;28;20388;-82
2021/03/18 06:16:48;;;;;;;4.50;2.45;;;;;;;20.77;38.30;103462.47;5054131;28;20087;-75
2021/03/18 06:19:15;;;;;;;8.55;3.15;;;;;;;20.62;38.83;103448.94;5054219;28;20039;-84
2021/03/18 06:21:48;;;;;;;5.03;1.98;;;;;;;20.59;38.65;103458.75;5053996;28;20491;-82
2021/03/18 06:24:14;;;;;;;7.15;2.55;;;;;;;20.80;38.40;103456.28;5053986;28;20052;-76
2021/03/18 06:26:40;;;;;;;5.20;1.95;;;;;;;20.85;38.47;103456.13;5053894;28;20017;-79
2021/03/18 06:29:34;;;;;;;3.00;1.88;;;;;;;20.78;38.65;103450.19;5053962;28;20025;-84
2021/03/18 06:32:12;;;;;;;7.93;2.08;;;;;;;20.92;38.21;103439.00;5053855;28;20035;-76
2021/03/18 06:34:55;;;;;;;4.13;2.28;;;;;;;20.83;38.40;103455.63;5052553;28;20025;-75
2021/03/18 06:37:43;;;;;;;15.48;4.45;;;;;;;20.78;38.59;103447.41;5052497;28;20052;-84
2021/03/18 06:40:18;;;;;;;7.43;2.67;;;;;;;20.86;38.69;103446.69;5053684;28;20025;-83
2021/03/18 06:42:58;;;;;;;7.88;2.65;;;;;;;20.79;38.79;103449.09;5053842;28;20021;-84
2021/03/18 06:45:30;;;;;;;;;;;;;;;20.91;38.52;103443.75;5054274;28;20020;-83
2021/03/18 06:48:00;;;;;;;8.20;3.28;;;;;;;20.95;38.40;103438.38;5053429;28;19912;-84
2021/03/18 06:50:31;;;;;;;12.23;4.00;;;;;;;20.94;38.33;103443.13;5053906;28;20376;-84
2021/03/18 06:52:57;;;;;;;5.60;2.50;;;;;;;20.97;38.40;103442.47;5053528;28;20021;-84
2021/03/18 06:55:31;;;;;;;4.95;2.83;;;;;;;20.97;38.60;103442.47;5053592;28;20029;-81
2021/03/18 06:58:15;;;;;;;4.93;2.78;;;;;;;20.84;38.84;103442.56;5053676;28;20032;-76
2021/03/18 07:00:43;;;;;;;4.57;2.78;;;;;;;20.96;38.60;103437.25;5053557;28;20039;-83
2021/03/18 07:03:10;;;;;;;18.95;5.90;;;;;;;20.90;38.86;103435.75;5053286;28;20131;-76
2021/03/18 07:05:41;;;;;;;20.92;6.30;;;;;;;20.88;38.91;103429.69;5053366;28;20387;-83
2021/03/18 07:08:22;;;;;;;8.25;4.22;;;;;;;20.88;39.17;103430.50;5053120;28;20024;-85
2021/03/18 07:10:48;;;;;;;28.20;5.55;;;;;;;20.93;38.92;103427.59;5053070;28;20029;-75
2021/03/18 07:13:21;;;;;;;6.93;3.80;;;;;;;21.01;38.89;103428.78;5053102;28;20025;-84
2021/03/18 07:15:48;;;;;;;22.67;5.90;;;;;;;20.90;38.92;103430.19;5053392;28;20033;-78
2021/03/18 07:18:14;;;;;;;7.22;3.80;;;;;;;21.01;38.87;103429.59;5053224;28;20086;-90
2021/03/18 07:21:01;;;;;;;13.68;4.32;;;;;;;20.85;39.44;103419.19;5053729;28;20053;-89
2021/03/18 07:23:36;;;;;;;14.48;5.32;;;;;;;21.02;39.07;103424.84;5053702;28;20032;-89
2021/03/18 07:26:18;;;;;;;14.43;3.95;;;;;;;20.97;39.25;103425.81;5054034;28;20036;-89
2021/03/18 07:28:46;;;;;;;12.95;3.55;;;;;;;21.05;39.01;103425.03;5053041;28;20049;-75
2021/03/18 07:31:12;;;;;;;9.18;3.17;;;;;;;21.10;38.99;103424.06;5052982;28;20104;-89
2021/03/18 07:33:38;;;;;;;3.78;2.33;;;;;;;21.12;39.05;103420.97;5053772;28;20111;-90
2021/03/18 07:36:04;;;;;;;5.53;2.80;;;;;;;21.01;39.30;103420.44;5053915;28;20485;-89
2021/03/18 07:38:36;;;;;;;14.98;3.25;;;;;;;21.04;39.37;103420.59;5053840;28;20387;-79
2021/03/18 07:41:03;;;;;;;17.33;4.53;;;;;;;21.14;39.35;103418.69;5053773;28;20612;-88
2021/03/18 07:43:29;;;;;;;5.88;2.30;;;;;;;21.17;39.14;103406.94;5053486;28;20065;-86
2021/03/18 07:45:56;;;;;;;9.20;2.55;;;;;;;21.15;39.22;103409.19;5052109;28;20029;-89
2021/03/18 07:48:22;;;;;;;6.15;2.58;;;;;;;21.13;39.41;103401.19;5053193;28;20029;-75
2021/03/18 07:50:49;;;;;;;3.67;1.88;;;;;;;21.10;39.58;103407.41;5053416;28;20036;-77
2021/03/18 07:53:18;;;;;;;5.22;1.80;;;;;;;21.17;39.35;103402.19;5053026;28;20025;-75
2021/03/18 07:55:46;;;;;;;9.32;2.13;;;;;;;21.09;39.57;103413.28;5053036;28;20079;-83
2021/03/18 07:58:12;;;;;;;14.60;2.90;;;;;;;21.05;39.65;103404.75;5053074;28;20025;-76
2021/03/18 08:00:41;;;;;;;4.30;1.80;;;;;;;21.23;39.29;103402.84;5053163;28;20059;-82
2021/03/18 08:03:22;;;;;;;15.65;4.00;;;;;;;20.96;40.13;103403.91;5032630;28;20501;-77
2021/03/18 08:05:48;;;;;;;2.35;1.52;;;;;;;21.06;39.86;103401.63;5032258;28;20029;-84
2021/03/18 08:08:32;;;;;;;21.95;3.97;;;;;;;20.89;40.34;103409.91;5033117;28;20411;-89
2021/03/18 08:11:08;;;;;;;35.75;6.00;;;;;;;21.20;39.65;103401.53;5032408;28;20033;-78
2021/03/18 08:13:36;;;;;;;10.27;2.60;;;;;;;21.01;40.15;103406.53;5032851;28;20069;-75
2021/03/18 08:16:04;;;;;;;12.07;2.58;;;;;;;21.20;39.67;103404.31;5032199;28;20030;-87
2021/03/18 08:18:31;;;;;;;14.57;3.42;;;;;;;21.11;40.15;103406.25;5033393;28;20472;-82
2021/03/18 08:20:58;;;;;;;3.08;1.73;;;;;;;21.13;39.89;103411.47;5036097;28;20526;-75
2021/03/18 08:23:24;;;;;;;18.65;5.05;;;;;;;21.17;39.96;103409.72;5052749;28;20047;-78
2021/03/18 08:25:57;;;;;;;2.38;1.45;;;;;;;21.01;40.17;103410.16;5063104;28;20025;-77
2021/03/18 08:28:37;;;;;;;11.60;4.38;;;;;;;21.18;39.91;103406.59;5060621;28;20021;-86
2021/03/18 08:31:11;;;;;;;24.98;4.90;;;;;;;21.27;39.80;103404.69;5059555;28;20017;-75
2021/03/18 08:33:45;;;;;;;16.90;2.80;;;;;;;21.27;40.08;103404.69;5064318;28;20111;-75
2021/03/18 08:36:35;;;;;;;7.55;2.10;;;;;;;21.33;39.88;103408.97;5065487;28;20024;-75
2021/03/18 08:39:08;;;;;;;15.38;3.10;;;;;;;21.52;39.55;103405.91;5068012;28;20025;-75
2021/03/18 08:41:41;;;;;;;2.28;1.38;;;;;;;21.34;39.97;103404.25;5067925;28;20120;-85
2021/03/18 08:44:25;;;;;;;3.20;1.60;;;;;;;21.19;40.51;103405.47;5079422;28;20052;-75
2021/03/18 08:47:05;;;;;;;37.15;5.57;;;;;;;21.41;39.75;103403.78;5063585;28;20059;-75
2021/03/18 08:49:45;;;;;;;13.52;3.70;;;;;;;21.54;39.46;103402.84;5063849;28;20082;-87
2021/03/18 08:52:35;;;;;;;5.68;1.63;;;;;;;21.27;40.14;103412.19;5078411;28;20020;-83
2021/03/18 08:55:01;;;;;;;39.20;5.30;;;;;;;21.70;39.42;103403.19;5082005;28;20090;-77
2021/03/18 08:57:29;;;;;;;4.20;1.58;;;;;;;21.66;39.31;103393.84;5064569;28;20033;-76
2021/03/18 08:59:58;;;;;;;9.45;2.47;;;;;;;21.81;39.18;103385.00;5062495;28;20036;-92
2021/03/18 09:02:34;;;;;;;10.43;3.00;;;;;;;21.33;40.31;103375.63;5060980;28;20336;-85
2021/03/18 09:05:03;;;;;;;13.30;4.20;;;;;;;21.62;39.58;103382.56;5061540;28;20560;-90
2021/03/18 09:07:31;;;;;;;4.73;1.80;;;;;;;21.53;39.67;103390.84;5066721;28;20025;-92
2021/03/18 09:10:21;;;;;;;4.03;2.03;;;;;;;21.60;39.59;103385.63;5065256;28;20028;-75
2021/03/18 09:12:50;;;;;;;12.82;1.85;;;;;;;21.84;39.04;103378.81;5062401;28;20082;-79
2021/03/18 09:15:17;;;;;;;3.72;1.75;;;;;;;21.82;39.34;103383.88;5065340;28;20490;-75
2021/03/18 09:17:44;;;;;;;3.95;1.63;;;;;;;21.69;39.65;103373.69;5065303;28;20036;-91
2021/03/18 09:20:15;;;;;;;17.27;5.00;;;;;;;21.57;39.70;103394.63;5061516;28;20580;-89
2021/03/18 09:22:41;;;;;;;11.10;2.00;;;;;;;21.83;39.45;103396.63;5062293;28;20120;-75
2021/03/18 09:25:08;;;;;;;7.07;2.30;;;;;;;21.83;39.15;103386.31;5058977;28;20458;-77
2021/03/18 09:27:44;;;;;;;7.75;2.45;;;;;;;21.83;39.23;103394.66;5060144;28;20060;-83
2021/03/18 09:30:29;;;;;;;2.00;1.40;;;;;;;21.66;39.90;103382.72;5060316;28;20074;-91
2021/03/18 09:32:55;;;;;;;17.75;3.42;;;;;;;22.14;38.80;103377.88;5062032;28;20035;-91
2021/03/18 09:35:22;;;;;;;22.38;3.90;;;;;;;22.22;39.05;103373.44;5061397;28;20435;-77
2021/03/18 09:37:49;;;;;;;7.70;2.22;;;;;;;22.17;39.10;103370.00;5061758;28;20392;-76
2021/03/18 09:40:16;;;;;;;1.75;1.20;;;;;;;22.03;39.41;103370.94;5059658;28;20056;-88
2021/03/18 09:42:42;;;;;;;2.08;1.42;;;;;;;22.25;39.12;103369.16;5056573;28;20033;-75
2021/03/18 09:45:09;;;;;;;15.23;3.42;;;;;;;22.68;38.46;103360.72;5059975;28;20052;-75
2021/03/18 09:47:37;;;;;;;2.67;1.77;;;;;;;22.76;38.37;103368.22;5059822;28;20032;-74
2021/03/18 09:50:05;;;;;;;3.20;2.17;;;;;;;22.53;38.84;103366.81;5060551;28;20037;-82
2021/03/18 09:52:30;;;;;;;20.48;4.68;;;;;;;22.48;38.92;103370.59;5061828;28;20021;-76
2021/03/18 09:54:58;;;;;;;3.97;2.72;;;;;;;22.62;38.26;103362.84;5066325;28;20048;-90
2021/03/18 09:57:29;;;;;;;6.10;2.08;;;;;;;22.99;37.88;103368.81;5062283;28;20059;-88
2021/03/18 09:59:55;;;;;;;4.75;3.15;;;;;;;23.14;37.65;103370.22;5061609;28;20020;-90
2021/03/18 10:02:29;;;;;;;4.03;3.58;;;;;;;22.95;37.62;103377.03;5061493;28;20029;-90
2021/03/18 10:04:55;;;;;;;10.43;3.45;;;;;;;23.19;37.54;103378.38;5057959;28;20041;-82
2021/03/18 10:07:26;;;;;;;6.38;5.70;;;;;;;23.18;37.42;103376.75;5056651;28;20025;-89
2021/03/18 10:09:52;;;;;;;5.63;5.10;;;;;;;22.68;38.50;103369.88;5055132;28;20467;-88
2021/03/18 10:12:21;;;;;;;4.35;3.95;;;;;;;23.13;37.35;103363.03;5062621;28;20024;-89
2021/03/18 10:14:57;;;;;;;6.88;3.33;;;;;;;23.32;37.16;103357.00;5074319;28;20029;-90
2021/03/18 10:17:25;;;;;;;29.77;7.90;;;;;;;23.45;36.96;103353.97;5059681;28;20364;-87
2021/03/18 10:19:54;;;;;;;4.65;2.30;;;;;;;23.45;37.19;103344.78;5055005;28;20064;-89
2021/03/18 10:22:21;;;;;;;1.77;1.40;;;;;;;23.24;37.30;103342.75;5063904;28;20032;-80
2021/03/18 10:25:06;;;;;;;2.35;1.73;;;;;;;23.18;37.48;103338.53;5074374;28;20486;-74
2021/03/18 10:27:50;;;;;;;7.57;3.13;;;;;;;23.32;36.97;103338.28;5073615;28;20029;-87
2021/03/18 10:30:19;;;;;;;3.13;1.45;;;;;;;23.04;37.46;103320.41;5061417;28;20025;-74
2021/03/18 10:33:07;;;;;;;4.88;2.20;;;;;;;23.09;37.75;103321.03;5054135;28;20028;-89
2021/03/18 10:35:37;;;;;;;3.90;1.73;;;;;;;23.08;37.32;103327.75;5051424;28;20029;-88
2021/03/18 10:38:05;;;;;;;3.05;1.98;;;;;;;23.46;36.91;103324.09;5053569;28;20029;-89
2021/03/18 10:40:41;;;;;;;23.35;6.05;;;;;;;23.63;36.69;103328.75;5053423;28;20025;-88
2021/03/18 10:43:19;;;;;;;1.92;1.30;;;;;;;23.46;37.04;103338.03;5039960;28;20503;-89
2021/03/18 10:45:46;;;;;;;1.92;1.70;;;;;;;23.64;36.76;103317.22;5052431;28;20070;-74
2021/03/18 10:48:17;;;;;;;7.43;2.50;;;;;;;23.71;36.64;103313.91;5052463;28;20078;-88
2021/03/18 10:50:42;;;;;;;23.40;5.05;;;;;;;23.64;36.52;103310.84;5057607;28;20052;-92
2021/03/18 10:53:10;;;;;;;1.70;1.23;;;;;;;23.73;36.69;103312.41;5059122;28;20020;-86
2021/03/18 10:55:39;;;;;;;4.75;2.10;;;;;;;23.78;36.54;103314.97;5056117;28;20548;-90
2021/03/18 10:58:10;;;;;;;3.45;1.65;;;;;;;24.11;35.85;103310.56;5054915;28;20021;-91
2021/03/18 11:00:38;;;;;;;12.10;2.42;;;;;;;24.16;35.71;103304.78;5055608;28;20616;-89
2021/03/18 11:03:17;;;;;;;6.95;1.88;;;;;;;23.61;36.29;103305.94;5054723;28;20025;-77
2021/03/18 11:05:50;;;;;;;5.40;2.30;;;;;;;24.29;35.39;103315.63;5060216;28;20062;-75
2021/03/18 11:08:27;;;;;;;6.30;2.22;;;;;;;24.27;35.45;103317.97;5058891;28;20024;-82
2021/03/18 11:10:54;;;;;;;4.32;2.03;;;;;;;24.04;35.66;103314.75;5058139;28;20534;-76
2021/03/18 11:13:25;;;;;;;7.35;1.80;;;;;;;24.01;35.45;103311.81;5054007;28;20487;-80
2021/03/18 11:15:55;;;;;;;8.68;2.17;;;;;;;23.90;35.59;103305.03;5055090;28;20024;-90
2021/03/18 11:18:38;;;;;;;5.30;2.00;;;;;;;23.91;35.80;103321.44;5054352;28;20116;-88
2021/03/18 11:21:24;;;;;;;1.85;1.40;;;;;;;23.87;36.11;103314.09;5054014;28;20037;-87
2021/03/18 11:23:53;;;;;;;8.20;2.50;;;;;;;23.98;35.59;103318.91;5069334;28;20056;-79
2021/03/18 11:26:22;;;;;;;35.72;6.00;;;;;;;24.06;35.69;103317.19;5074173;28;20068;-89
2021/03/18 11:29:00;;;;;;;3.30;1.85;;;;;;;24.23;35.39;103307.81;5074239;28;20024;-91
2021/03/18 11:31:28;;;;;;;6.47;2.58;;;;;;;24.30;35.27;103311.69;5073912;28;20493;-90
2021/03/18 11:33:54;;;;;;;10.60;2.58;;;;;;;24.22;35.56;103309.00;5064727;28;20116;-75
2021/03/18 11:36:21;;;;;;;16.75;4.35;;;;;;;24.47;35.38;103307.91;5052034;28;20025;-87